Houck, Arizona
Current Conditions -  °F | °C
As of 6:53 PM on Friday 28 Nov 2014 (Local Time) from KGUP Reporting Station
Clear Clear  
Wind Chill: 39°   Ceiling: Unl
Heat Index: 39°   Visibility: 10mi
Dew Point:   Wind: 3mph
Humidity: 21%   Direction: 30°NNE
Pressure: 30.13"   Gusts: NA
Location:  35.28°N, 109.2°W
Report Text: KGUP 290153Z AUTO 03003KT 10SM CLR 04/M17 A3013 RMK AO2 SLP240 T00391167
Loading
Personal Weather Stations






























Interactive Weather Map New forecast layout! Learn more

10-Day Weather Forecast

Advertisements
Track Severe Weather on mobile